Time;durP1;ratioP1;P1;durP2;ratioP2;P2;SDS_P1;SDS_P2;PMS_P1;PMS_P2;Temp;Humidity;BMP_temperature;BMP_pressure;BME280_temperature;BME280_humidity;BME280_pressure;Samples;Min_cycle;Max_cycle;Signal;HPM_P1;HPM_P2
2023/07/26 00:00:02;;;;;;;2.87;2.67;;;;;;;;;;5032598;28;20449;-58
2023/07/26 00:02:28;;;;;;;2.77;2.13;;;;;;;;;;5033268;28;20411;-58
2023/07/26 00:04:54;;;;;;;2.67;2.57;;;;;;;;;;5032253;28;20418;-58
2023/07/26 00:07:20;;;;;;;2.90;2.77;;;;;;;;;;5032051;28;20936;-57
2023/07/26 00:09:48;;;;;;;2.50;2.43;;;;;;;;;;5032683;28;20442;-58
2023/07/26 00:12:17;;;;;;;3.73;2.37;;;;;;;;;;5032241;28;20466;-58
2023/07/26 00:14:45;;;;;;;3.10;2.90;;;;;;;;;;5032322;28;20431;-57
2023/07/26 00:17:11;;;;;;;3.13;2.93;;;;;;;;;;5031830;28;20463;-58
2023/07/26 00:19:39;;;;;;;3.30;3.03;;;;;;;;;;5032139;28;20418;-58
2023/07/26 00:22:08;;;;;;;2.93;2.73;;;;;;;;;;5032024;28;20438;-58
2023/07/26 00:24:34;;;;;;;3.20;3.10;;;;;;;;;;5032023;28;20427;-58
2023/07/26 00:27:00;;;;;;;3.43;3.20;;;;;;;;;;5032281;28;20418;-58
2023/07/26 00:29:28;;;;;;;3.53;2.90;;;;;;;;;;5032503;28;20425;-58
2023/07/26 00:31:54;;;;;;;3.90;3.33;;;;;;;;;;5031858;28;20482;-58
2023/07/26 00:34:20;;;;;;;3.57;3.43;;;;;;;;;;5031960;28;20438;-56
2023/07/26 00:36:46;;;;;;;3.60;3.30;;;;;;;;;;5032083;28;20410;-58
2023/07/26 00:39:12;;;;;;;3.33;3.10;;;;;;;;;;5030722;28;20571;-58
2023/07/26 00:41:38;;;;;;;3.23;3.13;;;;;;;;;;5031839;28;20464;-58
2023/07/26 00:44:07;;;;;;;3.53;3.33;;;;;;;;;;5031007;28;20896;-56
2023/07/26 00:46:33;;;;;;;4.60;4.17;;;;;;;;;;5031977;28;21039;-58
2023/07/26 00:49:02;;;;;;;3.70;3.50;;;;;;;;;;5031986;28;20438;-58
2023/07/26 00:51:28;;;;;;;3.63;3.43;;;;;;;;;;5031850;28;20975;-57
2023/07/26 00:53:54;;;;;;;4.10;3.80;;;;;;;;;;5031970;28;20422;-58
2023/07/26 00:56:21;;;;;;;4.87;3.83;;;;;;;;;;5031841;28;20496;-58
2023/07/26 00:58:49;;;;;;;4.87;4.57;;;;;;;;;;5031753;28;20419;-57
2023/07/26 01:01:15;;;;;;;6.00;3.47;;;;;;;;;;5031835;28;20474;-58
2023/07/26 01:03:41;;;;;;;4.23;3.77;;;;;;;;;;5031676;28;20923;-57
2023/07/26 01:06:20;;;;;;;4.30;4.10;;;;;;;;;;5031682;28;20414;-58
2023/07/26 01:09:05;;;;;;;5.10;4.80;;;;;;;;;;5030410;28;20425;-58
2023/07/26 01:11:35;;;;;;;5.27;4.60;;;;;;;;;;5030232;28;20480;-57
2023/07/26 01:14:01;;;;;;;4.40;4.10;;;;;;;;;;5031944;28;20908;-56
2023/07/26 01:16:28;;;;;;;7.03;5.17;;;;;;;;;;5031599;28;20484;-58
2023/07/26 01:18:54;;;;;;;5.03;4.73;;;;;;;;;;5031519;28;20549;-58
2023/07/26 01:21:19;;;;;;;5.13;4.63;;;;;;;;;;5035788;28;20520;-57
2023/07/26 01:23:45;;;;;;;5.97;4.70;;;;;;;;;;5035717;28;20888;-58
2023/07/26 01:26:11;;;;;;;9.17;6.40;;;;;;;;;;5035408;28;20421;-58
2023/07/26 01:28:37;;;;;;;6.47;5.07;;;;;;;;;;5035043;28;20509;-58
2023/07/26 01:31:05;;;;;;;6.53;5.27;;;;;;;;;;5034809;28;20953;-57
2023/07/26 01:33:34;;;;;;;5.83;5.33;;;;;;;;;;5035880;28;20405;-58
2023/07/26 01:36:00;;;;;;;6.00;5.70;;;;;;;;;;5035156;28;20407;-58
2023/07/26 01:38:26;;;;;;;6.10;5.60;;;;;;;;;;5034884;28;20923;-58
2023/07/26 01:40:52;;;;;;;6.37;5.80;;;;;;;;;;5034588;28;20447;-58
2023/07/26 01:43:21;;;;;;;5.37;5.10;;;;;;;;;;5034876;28;20407;-58
2023/07/26 01:45:47;;;;;;;7.13;5.90;;;;;;;;;;5033378;28;20449;-58
2023/07/26 01:48:13;;;;;;;6.10;5.70;;;;;;;;;;5034699;28;20413;-58
2023/07/26 01:50:39;;;;;;;8.27;5.90;;;;;;;;;;5034708;28;20472;-58
2023/07/26 01:53:05;;;;;;;8.13;5.90;;;;;;;;;;5034572;28;20415;-58
2023/07/26 01:55:31;;;;;;;8.87;5.97;;;;;;;;;;5034565;28;20909;-58
2023/07/26 01:57:57;;;;;;;6.20;5.80;;;;;;;;;;5034370;28;20586;-58
2023/07/26 02:00:23;;;;;;;6.57;6.03;;;;;;;;;;5034747;28;20426;-58
2023/07/26 02:02:49;;;;;;;6.50;6.10;;;;;;;;;;5032973;28;20804;-58
2023/07/26 02:05:16;;;;;;;6.67;6.17;;;;;;;;;;5034548;28;20896;-58
2023/07/26 02:07:42;;;;;;;10.00;6.87;;;;;;;;;;5034265;28;20732;-58
2023/07/26 02:10:08;;;;;;;5.87;5.57;;;;;;;;;;5034476;28;20432;-58
2023/07/26 02:12:34;;;;;;;9.43;6.00;;;;;;;;;;5033108;28;20437;-58
2023/07/26 02:15:00;;;;;;;7.40;6.70;;;;;;;;;;5032942;28;20476;-58
2023/07/26 02:17:26;;;;;;;6.50;6.10;;;;;;;;;;5034074;28;20503;-58
2023/07/26 02:19:52;;;;;;;6.80;6.20;;;;;;;;;;5033843;28;20929;-58
2023/07/26 02:22:18;;;;;;;7.40;6.97;;;;;;;;;;5033896;28;20418;-58
2023/07/26 02:24:44;;;;;;;5.83;5.33;;;;;;;;;;5033763;28;20442;-58
2023/07/26 02:27:10;;;;;;;6.47;6.00;;;;;;;;;;5034009;28;20707;-58
2023/07/26 02:29:36;;;;;;;7.30;6.43;;;;;;;;;;5033761;28;20424;-58
2023/07/26 02:32:02;;;;;;;8.17;7.37;;;;;;;;;;5034065;28;20483;-58
2023/07/26 02:34:28;;;;;;;7.00;6.43;;;;;;;;;;5033891;28;20414;-58
2023/07/26 02:36:54;;;;;;;7.67;6.97;;;;;;;;;;5033688;28;20441;-58
2023/07/26 02:39:23;;;;;;;8.63;7.97;;;;;;;;;;5033776;28;20493;-58
2023/07/26 02:41:49;;;;;;;6.23;5.70;;;;;;;;;;5033611;28;20441;-58
2023/07/26 02:44:15;;;;;;;9.40;6.50;;;;;;;;;;5033591;28;20459;-58
2023/07/26 02:46:41;;;;;;;7.37;6.73;;;;;;;;;;5032368;28;20895;-58
2023/07/26 02:49:07;;;;;;;7.47;6.97;;;;;;;;;;5033567;28;20495;-58
2023/07/26 02:51:35;;;;;;;8.90;6.33;;;;;;;;;;5033522;28;20539;-58
2023/07/26 02:54:01;;;;;;;7.27;6.77;;;;;;;;;;5033551;28;20422;-58
2023/07/26 02:56:27;;;;;;;8.27;7.03;;;;;;;;;;5032295;28;20917;-58
2023/07/26 02:58:53;;;;;;;8.70;6.80;;;;;;;;;;5033106;28;20461;-58
2023/07/26 03:01:19;;;;;;;7.37;6.77;;;;;;;;;;5033639;28;20909;-58
2023/07/26 03:03:47;;;;;;;7.93;7.07;;;;;;;;;;5033111;28;20520;-58
2023/07/26 03:06:14;;;;;;;7.30;6.53;;;;;;;;;;5032060;28;20429;-58
2023/07/26 03:08:42;;;;;;;6.53;5.93;;;;;;;;;;5022898;28;20435;-58
2023/07/26 03:11:11;;;;;;;7.83;7.10;;;;;;;;;;5011316;28;20535;-58
2023/07/26 03:13:37;;;;;;;9.17;6.60;;;;;;;;;;5013033;28;20425;-57
2023/07/26 03:16:03;;;;;;;7.40;6.70;;;;;;;;;;5013258;28;20491;-58
2023/07/26 03:18:31;;;;;;;6.87;6.30;;;;;;;;;;5013119;28;20434;-58
2023/07/26 03:20:57;;;;;;;9.00;6.40;;;;;;;;;;5013034;28;20421;-58
2023/07/26 03:23:23;;;;;;;6.40;5.90;;;;;;;;;;5013069;28;20831;-58
2023/07/26 03:25:49;;;;;;;6.33;5.77;;;;;;;;;;5013020;28;20418;-58
2023/07/26 03:28:15;;;;;;;6.13;5.53;;;;;;;;;;5011635;28;20491;-58
2023/07/26 03:30:41;;;;;;;11.87;5.87;;;;;;;;;;5012107;28;20470;-58
2023/07/26 03:33:08;;;;;;;6.67;5.90;;;;;;;;;;5012749;28;20416;-58
2023/07/26 03:35:34;;;;;;;8.27;6.27;;;;;;;;;;5013079;28;20416;-58
2023/07/26 03:38:00;;;;;;;7.20;6.10;;;;;;;;;;5012836;28;20797;-58
2023/07/26 03:40:26;;;;;;;5.40;5.10;;;;;;;;;;5011482;28;20421;-58
2023/07/26 03:42:52;;;;;;;5.90;5.50;;;;;;;;;;5012136;28;20445;-58
2023/07/26 03:45:20;;;;;;;7.87;5.80;;;;;;;;;;5012832;28;20431;-58
2023/07/26 03:47:46;;;;;;;6.37;5.90;;;;;;;;;;5012587;28;20507;-58
2023/07/26 03:50:12;;;;;;;8.63;6.40;;;;;;;;;;5012455;28;20505;-58
2023/07/26 03:52:38;;;;;;;10.87;5.27;;;;;;;;;;5012720;28;20395;-58
2023/07/26 03:55:04;;;;;;;11.93;5.30;;;;;;;;;;5012542;28;20474;-58
2023/07/26 03:57:30;;;;;;;5.70;5.20;;;;;;;;;;5011152;28;20476;-58
2023/07/26 03:59:56;;;;;;;5.50;5.30;;;;;;;;;;5012635;28;20445;-58
2023/07/26 04:02:22;;;;;;;5.03;4.73;;;;;;;;;;5012406;28;21001;-58
2023/07/26 04:04:48;;;;;;;6.93;5.30;;;;;;;;;;5012537;28;20417;-58
2023/07/26 04:07:14;;;;;;;5.77;5.33;;;;;;;;;;5012429;28;20397;-58
2023/07/26 04:09:40;;;;;;;9.30;8.50;;;;;;;;;;5012660;28;20436;-58
2023/07/26 04:12:08;;;;;;;4.90;4.67;;;;;;;;;;5010998;28;20472;-58
2023/07/26 04:14:37;;;;;;;5.07;4.73;;;;;;;;;;5012646;28;20870;-58
2023/07/26 04:17:03;;;;;;;7.97;4.37;;;;;;;;;;5012146;28;20449;-58
2023/07/26 04:19:29;;;;;;;5.27;4.77;;;;;;;;;;5011087;28;20433;-58
2023/07/26 04:21:55;;;;;;;4.70;4.50;;;;;;;;;;5012229;28;20413;-58
2023/07/26 04:24:21;;;;;;;7.37;5.03;;;;;;;;;;5012409;28;20972;-58
2023/07/26 04:26:47;;;;;;;5.63;5.20;;;;;;;;;;5012145;28;20431;-58
2023/07/26 04:29:13;;;;;;;4.97;4.50;;;;;;;;;;5012490;28;20400;-57
2023/07/26 04:31:39;;;;;;;6.50;4.53;;;;;;;;;;5012111;28;20559;-58
2023/07/26 04:34:05;;;;;;;5.17;4.67;;;;;;;;;;5012325;28;20488;-58
2023/07/26 04:36:31;;;;;;;6.77;6.20;;;;;;;;;;5010792;28;20433;-58
2023/07/26 04:38:57;;;;;;;5.23;4.93;;;;;;;;;;5012296;28;20560;-58
2023/07/26 04:41:23;;;;;;;5.30;4.80;;;;;;;;;;5011920;28;20914;-57
2023/07/26 04:43:49;;;;;;;4.87;4.47;;;;;;;;;;5012030;28;20504;-58
2023/07/26 04:46:16;;;;;;;5.17;4.70;;;;;;;;;;5012051;28;20956;-58
2023/07/26 04:48:45;;;;;;;5.10;4.70;;;;;;;;;;5012179;28;20418;-58
2023/07/26 04:51:11;;;;;;;4.93;4.73;;;;;;;;;;5011950;28;20904;-58
2023/07/26 04:53:40;;;;;;;10.20;5.10;;;;;;;;;;5014492;28;20450;-58
2023/07/26 04:56:09;;;;;;;6.07;4.20;;;;;;;;;;5016124;28;20439;-58
2023/07/26 04:58:35;;;;;;;4.70;4.23;;;;;;;;;;5015780;28;20816;-58
2023/07/26 05:01:04;;;;;;;6.40;5.17;;;;;;;;;;5015845;28;20480;-58
2023/07/26 05:03:30;;;;;;;4.63;4.43;;;;;;;;;;5015790;28;20839;-58
2023/07/26 05:05:58;;;;;;;4.23;4.00;;;;;;;;;;5015719;28;20466;-58
2023/07/26 05:08:24;;;;;;;5.37;4.70;;;;;;;;;;5015585;28;20429;-58
2023/07/26 05:10:51;;;;;;;4.70;4.50;;;;;;;;;;5015557;28;20827;-58
2023/07/26 05:13:17;;;;;;;4.77;4.57;;;;;;;;;;5015452;28;20438;-58
2023/07/26 05:15:43;;;;;;;10.33;4.87;;;;;;;;;;5015463;28;20417;-58
2023/07/26 05:18:09;;;;;;;5.00;4.77;;;;;;;;;;5014254;28;20492;-58
2023/07/26 05:20:35;;;;;;;5.13;4.77;;;;;;;;;;5015664;28;20479;-58
2023/07/26 05:23:01;;;;;;;5.00;4.70;;;;;;;;;;5015309;28;20421;-58
2023/07/26 05:25:27;;;;;;;5.33;5.07;;;;;;;;;;5014198;28;20471;-58
2023/07/26 05:27:54;;;;;;;8.20;4.60;;;;;;;;;;5013762;28;20433;-59
2023/07/26 05:30:20;;;;;;;5.90;5.37;;;;;;;;;;5015308;28;20414;-58
2023/07/26 05:32:46;;;;;;;4.87;4.40;;;;;;;;;;5015005;28;20420;-58
2023/07/26 05:35:12;;;;;;;6.00;4.90;;;;;;;;;;5015014;28;20816;-58
2023/07/26 05:37:39;;;;;;;5.20;4.80;;;;;;;;;;5015225;28;20416;-58
2023/07/26 05:40:08;;;;;;;4.60;4.40;;;;;;;;;;5013921;28;20455;-58
2023/07/26 05:42:34;;;;;;;4.50;4.30;;;;;;;;;;5013827;28;20425;-58
2023/07/26 05:45:00;;;;;;;5.30;4.80;;;;;;;;;;5014945;28;20519;-58
2023/07/26 05:47:26;;;;;;;5.07;4.77;;;;;;;;;;5014913;28;20439;-59
2023/07/26 05:49:52;;;;;;;5.03;4.73;;;;;;;;;;5013791;28;20426;-58
2023/07/26 05:52:23;;;;;;;5.47;5.03;;;;;;;;;;5014937;28;20530;-58
2023/07/26 05:54:55;;;;;;;8.73;5.03;;;;;;;;;;5013760;28;20839;-58
2023/07/26 05:57:21;;;;;;;5.60;5.10;;;;;;;;;;5014812;28;20865;-58
2023/07/26 05:59:47;;;;;;;6.03;5.30;;;;;;;;;;5014619;28;20515;-59
2023/07/26 06:02:13;;;;;;;5.53;5.13;;;;;;;;;;5014792;28;20442;-58
2023/07/26 06:04:39;;;;;;;6.27;5.70;;;;;;;;;;5013888;28;20420;-58
2023/07/26 06:07:05;;;;;;;5.97;5.40;;;;;;;;;;5013297;28;20451;-59
2023/07/26 06:09:31;;;;;;;6.10;5.60;;;;;;;;;;5013487;28;20426;-58
2023/07/26 06:11:57;;;;;;;10.17;5.83;;;;;;;;;;5014459;28;21018;-58
2023/07/26 06:14:26;;;;;;;8.33;5.53;;;;;;;;;;5014540;28;20453;-58
2023/07/26 06:16:52;;;;;;;6.20;5.60;;;;;;;;;;5014256;28;20439;-58
2023/07/26 06:19:18;;;;;;;8.70;6.13;;;;;;;;;;5014402;28;20434;-58
2023/07/26 06:21:46;;;;;;;8.63;6.70;;;;;;;;;;5014348;28;20422;-58
2023/07/26 06:24:15;;;;;;;7.33;6.67;;;;;;;;;;5014027;28;20948;-58
2023/07/26 06:26:41;;;;;;;6.47;6.03;;;;;;;;;;5014366;28;20426;-58
2023/07/26 06:29:07;;;;;;;6.77;6.27;;;;;;;;;;5014122;28;20418;-58
2023/07/26 06:31:33;;;;;;;6.37;6.03;;;;;;;;;;5014219;28;20569;-58
2023/07/26 06:34:01;;;;;;;6.80;6.20;;;;;;;;;;5012618;28;20489;-58
2023/07/26 06:36:29;;;;;;;6.30;5.90;;;;;;;;;;5014095;28;20788;-58
2023/07/26 06:38:55;;;;;;;5.73;5.50;;;;;;;;;;5013892;28;20824;-59
2023/07/26 06:41:23;;;;;;;7.67;7.00;;;;;;;;;;5013884;28;20524;-59
2023/07/26 06:43:50;;;;;;;5.33;4.83;;;;;;;;;;5013938;28;20516;-58
2023/07/26 06:46:16;;;;;;;6.10;5.60;;;;;;;;;;5013847;28;20528;-59
2023/07/26 06:48:44;;;;;;;5.50;5.20;;;;;;;;;;5012088;28;20528;-58
2023/07/26 06:51:10;;;;;;;5.37;5.07;;;;;;;;;;5012748;28;20470;-58
2023/07/26 06:53:36;;;;;;;5.73;4.90;;;;;;;;;;5012662;28;20921;-58
2023/07/26 06:56:02;;;;;;;4.83;4.40;;;;;;;;;;5013067;28;20418;-59
2023/07/26 06:58:28;;;;;;;4.97;4.63;;;;;;;;;;5014073;28;20477;-59
2023/07/26 07:00:57;;;;;;;4.80;4.60;;;;;;;;;;5012175;28;21207;-59
2023/07/26 07:03:25;;;;;;;4.47;4.17;;;;;;;;;;5013624;28;20442;-58
2023/07/26 07:05:51;;;;;;;4.60;4.27;;;;;;;;;;5013517;28;20927;-59
2023/07/26 07:08:17;;;;;;;4.27;3.97;;;;;;;;;;5013414;28;20450;-59
2023/07/26 07:10:43;;;;;;;8.77;3.90;;;;;;;;;;5013459;28;20469;-59
2023/07/26 07:13:09;;;;;;;3.97;3.77;;;;;;;;;;5013217;28;20424;-59
2023/07/26 07:15:35;;;;;;;4.13;3.77;;;;;;;;;;5012911;28;20411;-58
2023/07/26 07:18:01;;;;;;;3.73;3.63;;;;;;;;;;5012668;28;20437;-59
2023/07/26 07:20:27;;;;;;;4.30;3.73;;;;;;;;;;5013245;28;20444;-59
2023/07/26 07:22:55;;;;;;;3.27;3.17;;;;;;;;;;5012174;28;20432;-59
2023/07/26 07:25:21;;;;;;;3.97;3.87;;;;;;;;;;5013105;28;20943;-59
2023/07/26 07:27:47;;;;;;;3.53;3.43;;;;;;;;;;5012924;28;20498;-59
2023/07/26 07:30:14;;;;;;;4.07;3.80;;;;;;;;;;5012896;28;20781;-59
2023/07/26 07:32:42;;;;;;;3.50;3.40;;;;;;;;;;5013030;28;20887;-59
2023/07/26 07:35:08;;;;;;;5.53;4.80;;;;;;;;;;5012520;28;20416;-59
2023/07/26 07:37:34;;;;;;;4.07;3.97;;;;;;;;;;5011425;28;20463;-59
2023/07/26 07:40:03;;;;;;;4.27;4.03;;;;;;;;;;5012912;28;20419;-59
2023/07/26 07:42:31;;;;;;;4.23;4.03;;;;;;;;;;5011689;28;20816;-60
2023/07/26 07:44:57;;;;;;;4.33;4.03;;;;;;;;;;5012884;28;20908;-59
2023/07/26 07:47:25;;;;;;;8.10;3.23;;;;;;;;;;5012821;28;20509;-59
2023/07/26 07:49:51;;;;;;;3.43;3.30;;;;;;;;;;5012888;28;20408;-59
2023/07/26 07:52:17;;;;;;;3.60;3.33;;;;;;;;;;5012543;28;20551;-60
2023/07/26 07:54:43;;;;;;;5.53;4.20;;;;;;;;;;5012688;28;20768;-59
2023/07/26 07:57:12;;;;;;;4.60;4.10;;;;;;;;;;5012580;28;20455;-59
2023/07/26 07:59:38;;;;;;;3.97;3.67;;;;;;;;;;5011339;28;20455;-59
2023/07/26 08:02:04;;;;;;;3.67;3.47;;;;;;;;;;5012608;28;20413;-60
2023/07/26 08:04:32;;;;;;;3.03;2.90;;;;;;;;;;5012523;28;20420;-60
2023/07/26 08:06:58;;;;;;;3.30;3.10;;;;;;;;;;5012397;28;20424;-60
2023/07/26 08:09:24;;;;;;;3.30;3.20;;;;;;;;;;5012491;28;20415;-60
2023/07/26 08:11:50;;;;;;;5.90;3.13;;;;;;;;;;5012485;28;20831;-59
2023/07/26 08:14:16;;;;;;;3.43;3.33;;;;;;;;;;5012209;28;20404;-61
2023/07/26 08:16:42;;;;;;;3.73;3.43;;;;;;;;;;5012354;28;20492;-59
2023/07/26 08:19:08;;;;;;;4.97;4.73;;;;;;;;;;5012483;28;20503;-59
2023/07/26 08:21:34;;;;;;;3.27;3.07;;;;;;;;;;5012552;28;20924;-59
2023/07/26 08:24:02;;;;;;;3.20;3.00;;;;;;;;;;5012762;28;20463;-58
2023/07/26 08:26:28;;;;;;;4.80;2.93;;;;;;;;;;5012411;28;20441;-59
2023/07/26 08:28:57;;;;;;;3.30;3.10;;;;;;;;;;5015707;28;20477;-58
2023/07/26 08:31:23;;;;;;;3.10;3.00;;;;;;;;;;5015190;28;20509;-58
2023/07/26 08:33:51;;;;;;;2.93;2.80;;;;;;;;;;5016561;28;20412;-58
2023/07/26 08:36:17;;;;;;;2.80;2.60;;;;;;;;;;5016571;28;20417;-60
2023/07/26 08:38:46;;;;;;;4.97;2.70;;;;;;;;;;5016578;28;20857;-58
2023/07/26 08:41:12;;;;;;;5.80;3.03;;;;;;;;;;5016315;28;20496;-58
2023/07/26 08:43:39;;;;;;;6.53;3.77;;;;;;;;;;5016374;28;20438;-58
2023/07/26 08:46:07;;;;;;;2.47;2.37;;;;;;;;;;5015183;28;20426;-58
2023/07/26 08:48:34;;;;;;;3.17;2.97;;;;;;;;;;5016350;28;20988;-58
2023/07/26 08:51:00;;;;;;;4.37;2.87;;;;;;;;;;5015951;28;20464;-59
2023/07/26 08:53:30;;;;;;;7.20;3.43;;;;;;;;;;5015896;28;20847;-58
2023/07/26 08:55:56;;;;;;;2.50;2.40;;;;;;;;;;5015998;28;20408;-58
2023/07/26 08:58:28;;;;;;;2.30;2.27;;;;;;;;;;5016291;28;20411;-58
2023/07/26 09:01:00;;;;;;;2.63;2.43;;;;;;;;;;5015919;28;20445;-59
2023/07/26 09:03:28;;;;;;;2.63;2.53;;;;;;;;;;5015681;28;20906;-58
2023/07/26 09:06:08;;;;;;;2.23;2.13;;;;;;;;;;5016025;28;20441;-59
2023/07/26 09:08:37;;;;;;;10.40;4.27;;;;;;;;;;5015716;28;20413;-59
2023/07/26 09:11:20;;;;;;;2.93;2.30;;;;;;;;;;5006885;28;20485;-58
2023/07/26 09:13:52;;;;;;;2.37;2.30;;;;;;;;;;4995998;28;20459;-58
2023/07/26 09:16:19;;;;;;;2.57;2.50;;;;;;;;;;4994723;28;20420;-58
2023/07/26 09:18:57;;;;;;;3.30;2.10;;;;;;;;;;4995478;28;20428;-58
2023/07/26 09:21:27;;;;;;;2.20;2.20;;;;;;;;;;4994614;28;20477;-58
2023/07/26 09:23:53;;;;;;;2.60;2.40;;;;;;;;;;4995262;28;20447;-59
2023/07/26 09:26:30;;;;;;;3.80;2.43;;;;;;;;;;4995664;28;20477;-59
2023/07/26 09:29:01;;;;;;;3.63;3.17;;;;;;;;;;4995765;28;20446;-59
2023/07/26 09:31:31;;;;;;;2.60;2.50;;;;;;;;;;4995679;28;21031;-59
2023/07/26 09:34:00;;;;;;;3.00;2.87;;;;;;;;;;4995490;28;20442;-58
2023/07/26 09:36:26;;;;;;;4.40;3.00;;;;;;;;;;4994949;28;20430;-58
2023/07/26 09:38:52;;;;;;;4.67;4.43;;;;;;;;;;4994184;28;20521;-59
2023/07/26 09:41:24;;;;;;;4.67;2.60;;;;;;;;;;4994745;28;20455;-59
2023/07/26 09:43:51;;;;;;;3.17;3.07;;;;;;;;;;4995262;28;20453;-57
2023/07/26 09:46:17;;;;;;;2.73;2.27;;;;;;;;;;4995300;28;20479;-58
2023/07/26 09:49:02;;;;;;;2.10;2.10;;;;;;;;;;4994929;28;21005;-58
2023/07/26 09:51:31;;;;;;;3.37;3.00;;;;;;;;;;4995212;28;20475;-57
2023/07/26 09:53:57;;;;;;;2.33;2.23;;;;;;;;;;4995327;28;20425;-63
2023/07/26 09:56:24;;;;;;;4.87;2.67;;;;;;;;;;4995561;28;20925;-57
2023/07/26 09:58:52;;;;;;;2.33;2.20;;;;;;;;;;4993460;28;20428;-58
2023/07/26 10:01:20;;;;;;;2.30;1.90;;;;;;;;;;4995166;28;20446;-59
2023/07/26 10:03:51;;;;;;;2.50;2.23;;;;;;;;;;4995152;28;20903;-59
2023/07/26 10:06:17;;;;;;;5.33;2.60;;;;;;;;;;4995053;28;20789;-58
2023/07/26 10:08:46;;;;;;;2.57;2.20;;;;;;;;;;4997309;28;20431;-58
2023/07/26 10:11:15;;;;;;;2.17;2.07;;;;;;;;;;5013878;28;20478;-58
2023/07/26 10:13:42;;;;;;;2.33;2.13;;;;;;;;;;5013931;28;20444;-59
2023/07/26 10:16:09;;;;;;;2.00;1.90;;;;;;;;;;5014688;28;20445;-59
2023/07/26 10:18:35;;;;;;;3.27;2.40;;;;;;;;;;5014565;28;20448;-59
2023/07/26 10:21:02;;;;;;;2.10;2.07;;;;;;;;;;5014432;28;20414;-58
2023/07/26 10:23:29;;;;;;;2.93;2.30;;;;;;;;;;5014530;28;20440;-59
2023/07/26 10:25:56;;;;;;;2.37;2.17;;;;;;;;;;5014063;28;20431;-58
2023/07/26 10:28:22;;;;;;;3.77;2.53;;;;;;;;;;5014290;28;20442;-58
2023/07/26 10:30:51;;;;;;;2.67;2.57;;;;;;;;;;5014108;28;20466;-59
2023/07/26 10:33:17;;;;;;;2.80;2.53;;;;;;;;;;5014307;28;20930;-59
2023/07/26 10:35:43;;;;;;;2.37;2.23;;;;;;;;;;5014126;28;20426;-58
2023/07/26 10:38:13;;;;;;;2.97;2.87;;;;;;;;;;5014328;28;20458;-58
2023/07/26 10:40:39;;;;;;;3.00;2.80;;;;;;;;;;5014027;28;20436;-59
2023/07/26 10:43:20;;;;;;;2.40;2.30;;;;;;;;;;5013982;28;20467;-59
2023/07/26 10:45:48;;;;;;;2.90;2.70;;;;;;;;;;5014121;28;20525;-58
2023/07/26 10:48:26;;;;;;;3.87;3.57;;;;;;;;;;5012454;28;20465;-58
2023/07/26 10:50:55;;;;;;;2.80;2.70;;;;;;;;;;5013629;28;20566;-58
2023/07/26 10:53:36;;;;;;;2.53;2.50;;;;;;;;;;5013888;28;20428;-59
2023/07/26 10:56:22;;;;;;;3.00;2.47;;;;;;;;;;5013900;28;20446;-59
2023/07/26 10:58:56;;;;;;;2.70;2.50;;;;;;;;;;5013828;28;20427;-58
2023/07/26 11:01:41;;;;;;;3.00;2.90;;;;;;;;;;5013829;28;20862;-59
2023/07/26 11:04:14;;;;;;;5.43;2.10;;;;;;;;;;5013971;28;20425;-59
2023/07/26 11:06:49;;;;;;;2.30;2.30;;;;;;;;;;5013606;28;20413;-59
2023/07/26 11:09:24;;;;;;;2.60;2.40;;;;;;;;;;5013516;28;20428;-59
2023/07/26 11:11:59;;;;;;;2.57;2.47;;;;;;;;;;5013627;28;20470;-59
2023/07/26 11:14:30;;;;;;;3.20;3.00;;;;;;;;;;5013266;28;20875;-59
2023/07/26 11:16:58;;;;;;;4.70;2.70;;;;;;;;;;5011896;28;20455;-59
2023/07/26 11:19:24;;;;;;;3.47;3.03;;;;;;;;;;5013124;28;20413;-59
2023/07/26 11:21:50;;;;;;;2.73;2.63;;;;;;;;;;5013607;28;20414;-60
2023/07/26 11:24:16;;;;;;;3.20;2.97;;;;;;;;;;5013373;28;20446;-60
2023/07/26 11:26:45;;;;;;;4.00;2.70;;;;;;;;;;5013406;28;20426;-59
2023/07/26 11:29:12;;;;;;;2.73;2.53;;;;;;;;;;5013037;28;20467;-60
2023/07/26 11:31:40;;;;;;;3.63;3.07;;;;;;;;;;5013385;28;20453;-60
2023/07/26 11:34:16;;;;;;;3.03;2.43;;;;;;;;;;5012841;28;20411;-59
2023/07/26 11:36:43;;;;;;;2.60;2.50;;;;;;;;;;5013208;28;20496;-59
2023/07/26 11:39:24;;;;;;;2.50;2.40;;;;;;;;;;5013098;28;20494;-59
2023/07/26 11:41:50;;;;;;;3.00;2.90;;;;;;;;;;5013024;28;20511;-59
2023/07/26 11:44:19;;;;;;;3.33;3.03;;;;;;;;;;5013021;28;20487;-60
2023/07/26 11:46:45;;;;;;;2.73;2.63;;;;;;;;;;5012986;28;20447;-60
2023/07/26 11:49:21;;;;;;;4.47;2.53;;;;;;;;;;5012482;28;20426;-60
2023/07/26 11:51:48;;;;;;;2.77;2.67;;;;;;;;;;5011437;28;20762;-59
2023/07/26 11:54:14;;;;;;;2.70;2.47;;;;;;;;;;5012672;28;20446;-60
2023/07/26 11:56:41;;;;;;;2.33;2.33;;;;;;;;;;5012755;28;20720;-60
2023/07/26 11:59:08;;;;;;;2.30;2.20;;;;;;;;;;5012324;28;20417;-59
2023/07/26 12:01:36;;;;;;;2.10;2.00;;;;;;;;;;5012436;28;20430;-59
2023/07/26 12:04:12;;;;;;;2.43;2.23;;;;;;;;;;5012354;28;20443;-59
2023/07/26 12:06:40;;;;;;;12.83;2.60;;;;;;;;;;5012600;28;20422;-59
2023/07/26 12:09:11;;;;;;;1.97;1.87;;;;;;;;;;5000507;28;20519;-59
2023/07/26 12:11:37;;;;;;;6.23;2.13;;;;;;;;;;4992587;28;20474;-63
2023/07/26 12:14:03;;;;;;;2.97;1.97;;;;;;;;;;4992966;28;20430;-59
2023/07/26 12:16:32;;;;;;;7.47;2.60;;;;;;;;;;4992994;28;20444;-59
2023/07/26 12:19:00;;;;;;;2.20;2.10;;;;;;;;;;4992610;28;20421;-59
2023/07/26 12:21:29;;;;;;;2.53;2.50;;;;;;;;;;4992713;28;20487;-59
2023/07/26 12:23:59;;;;;;;2.57;2.57;;;;;;;;;;4991495;28;20443;-59
2023/07/26 12:26:29;;;;;;;2.00;2.00;;;;;;;;;;4992707;28;20437;-59
2023/07/26 12:28:57;;;;;;;4.57;2.03;;;;;;;;;;4992754;28;20907;-59
2023/07/26 12:31:26;;;;;;;2.83;2.17;;;;;;;;;;4992347;28;20560;-59
2023/07/26 12:33:54;;;;;;;5.13;2.33;;;;;;;;;;4992787;28;20408;-59
2023/07/26 12:36:20;;;;;;;1.93;1.93;;;;;;;;;;4991330;28;20439;-59
2023/07/26 12:38:46;;;;;;;2.10;2.00;;;;;;;;;;4992634;28;20467;-59
2023/07/26 12:41:12;;;;;;;2.50;2.40;;;;;;;;;;4992423;28;20421;-59
2023/07/26 12:43:39;;;;;;;2.33;2.23;;;;;;;;;;4992398;28;20500;-59
2023/07/26 12:46:05;;;;;;;2.53;2.43;;;;;;;;;;4992909;28;20933;-59
2023/07/26 12:48:34;;;;;;;3.13;2.20;;;;;;;;;;4992194;28;20501;-59
2023/07/26 12:51:00;;;;;;;2.07;2.03;;;;;;;;;;4992585;28;20453;-59
2023/07/26 12:53:28;;;;;;;3.00;2.90;;;;;;;;;;4992509;28;20799;-59
2023/07/26 12:55:54;;;;;;;2.27;2.10;;;;;;;;;;4992596;28;20432;-59
2023/07/26 12:58:20;;;;;;;2.13;2.10;;;;;;;;;;4992659;28;20409;-58
2023/07/26 13:00:49;;;;;;;4.13;2.80;;;;;;;;;;4992493;28;20453;-58
2023/07/26 13:03:15;;;;;;;1.80;1.80;;;;;;;;;;4992438;28;20784;-59
2023/07/26 13:05:41;;;;;;;1.93;1.93;;;;;;;;;;4991786;28;20929;-59
2023/07/26 13:08:07;;;;;;;2.20;2.20;;;;;;;;;;4991213;28;20526;-59
2023/07/26 13:10:34;;;;;;;2.50;2.30;;;;;;;;;;4992015;28;20819;-58
2023/07/26 13:13:03;;;;;;;1.97;1.87;;;;;;;;;;4992546;28;20428;-59
2023/07/26 13:15:31;;;;;;;2.73;2.63;;;;;;;;;;4996500;28;20494;-59
2023/07/26 13:17:57;;;;;;;2.27;2.17;;;;;;;;;;4995893;28;20436;-59
2023/07/26 13:20:23;;;;;;;2.43;2.23;;;;;;;;;;4995834;28;20420;-59
2023/07/26 13:22:49;;;;;;;2.10;2.00;;;;;;;;;;4994715;28;20477;-59
2023/07/26 13:25:15;;;;;;;2.13;2.03;;;;;;;;;;4995664;28;20915;-59
2023/07/26 13:27:42;;;;;;;2.63;2.53;;;;;;;;;;4995403;28;20790;-59
2023/07/26 13:30:11;;;;;;;2.40;2.40;;;;;;;;;;4995538;28;20462;-59
2023/07/26 13:32:39;;;;;;;2.10;2.00;;;;;;;;;;4995465;28;20470;-59
2023/07/26 13:35:06;;;;;;;2.67;2.43;;;;;;;;;;4995746;28;20429;-59
2023/07/26 13:37:34;;;;;;;1.93;1.93;;;;;;;;;;4995479;28;20510;-59
2023/07/26 13:40:00;;;;;;;2.73;2.60;;;;;;;;;;4995892;28;20760;-59
2023/07/26 13:42:26;;;;;;;2.00;1.90;;;;;;;;;;4993704;28;20550;-59
2023/07/26 13:44:52;;;;;;;2.50;2.43;;;;;;;;;;4993951;28;20458;-59
2023/07/26 13:47:18;;;;;;;3.30;2.33;;;;;;;;;;4995447;28;20417;-59
2023/07/26 13:49:46;;;;;;;2.70;2.50;;;;;;;;;;4995321;28;20445;-59
2023/07/26 13:52:13;;;;;;;2.73;2.40;;;;;;;;;;4995399;28;20470;-59
2023/07/26 13:54:39;;;;;;;2.33;2.23;;;;;;;;;;4995173;28;20475;-59
2023/07/26 13:57:08;;;;;;;2.80;2.70;;;;;;;;;;4995463;28;20417;-59
2023/07/26 13:59:34;;;;;;;2.40;2.33;;;;;;;;;;4995112;28;20798;-59
2023/07/26 14:02:00;;;;;;;2.47;2.37;;;;;;;;;;4994829;28;20427;-59
2023/07/26 14:04:26;;;;;;;2.80;2.60;;;;;;;;;;4995185;28;20758;-59
2023/07/26 14:06:55;;;;;;;2.10;2.00;;;;;;;;;;4993891;28;20514;-59
2023/07/26 14:09:24;;;;;;;2.60;2.60;;;;;;;;;;4995143;28;20421;-59
2023/07/26 14:11:50;;;;;;;2.50;2.40;;;;;;;;;;4994893;28;20478;-59
2023/07/26 14:14:16;;;;;;;2.40;2.30;;;;;;;;;;4995009;28;20423;-57
2023/07/26 14:16:43;;;;;;;2.97;2.87;;;;;;;;;;4994797;28;20417;-59
2023/07/26 14:19:09;;;;;;;2.27;2.27;;;;;;;;;;4995010;28;20413;-59
2023/07/26 14:21:35;;;;;;;2.13;2.13;;;;;;;;;;4994860;28;20421;-59
2023/07/26 14:24:02;;;;;;;2.10;2.00;;;;;;;;;;4994824;28;20425;-59
2023/07/26 14:26:28;;;;;;;2.37;2.27;;;;;;;;;;4994354;28;20421;-59
2023/07/26 14:28:54;;;;;;;2.27;2.17;;;;;;;;;;4994496;28;20445;-59
2023/07/26 14:31:23;;;;;;;2.40;2.40;;;;;;;;;;4994605;28;20464;-59
2023/07/26 14:33:52;;;;;;;6.17;2.20;;;;;;;;;;4994639;28;20522;-59
2023/07/26 14:36:18;;;;;;;2.00;1.90;;;;;;;;;;4993314;28;20464;-59
2023/07/26 14:38:46;;;;;;;1.93;1.90;;;;;;;;;;4994304;28;20919;-59
2023/07/26 14:41:12;;;;;;;2.43;2.23;;;;;;;;;;4994737;28;20417;-59
2023/07/26 14:43:38;;;;;;;3.03;2.10;;;;;;;;;;4994444;28;20429;-59